sensor_id;sensor_type;location;lat;lon;timestamp;P1;durP1;ratioP1;P2;durP2;ratioP2
31732;SDS011;18312;51.486;7.144;2023-05-20T00:00:11;5.60;;;2.00;;
31732;SDS011;18312;51.486;7.144;2023-05-20T00:02:38;5.90;;;2.00;;
31732;SDS011;18312;51.486;7.144;2023-05-20T00:05:05;3.28;;;2.33;;
31732;SDS011;18312;51.486;7.144;2023-05-20T00:07:33;2.85;;;2.25;;
31732;SDS011;18312;51.486;7.144;2023-05-20T00:10:01;3.47;;;2.00;;
31732;SDS011;18312;51.486;7.144;2023-05-20T00:12:28;3.63;;;2.45;;
31732;SDS011;18312;51.486;7.144;2023-05-20T00:14:54;5.68;;;2.25;;
31732;SDS011;18312;51.486;7.144;2023-05-20T00:17:21;3.42;;;1.85;;
31732;SDS011;18312;51.486;7.144;2023-05-20T00:19:49;2.97;;;1.20;;
31732;SDS011;18312;51.486;7.144;2023-05-20T00:22:16;3.80;;;2.28;;
31732;SDS011;18312;51.486;7.144;2023-05-20T00:24:43;7.20;;;2.13;;
31732;SDS011;18312;51.486;7.144;2023-05-20T00:27:11;4.70;;;2.03;;
31732;SDS011;18312;51.486;7.144;2023-05-20T00:29:37;2.53;;;1.83;;
31732;SDS011;18312;51.486;7.144;2023-05-20T00:32:04;3.17;;;1.73;;
31732;SDS011;18312;51.486;7.144;2023-05-20T00:34:32;2.47;;;1.92;;
31732;SDS011;18312;51.486;7.144;2023-05-20T00:36:58;3.25;;;2.05;;
31732;SDS011;18312;51.486;7.144;2023-05-20T00:39:25;4.10;;;2.25;;
31732;SDS011;18312;51.486;7.144;2023-05-20T00:41:53;5.38;;;2.25;;
31732;SDS011;18312;51.486;7.144;2023-05-20T00:44:22;5.63;;;1.90;;
31732;SDS011;18312;51.486;7.144;2023-05-20T00:46:50;3.42;;;2.10;;
31732;SDS011;18312;51.486;7.144;2023-05-20T00:49:17;5.70;;;2.05;;
31732;SDS011;18312;51.486;7.144;2023-05-20T00:51:44;3.63;;;1.70;;
31732;SDS011;18312;51.486;7.144;2023-05-20T00:54:12;6.60;;;1.95;;
31732;SDS011;18312;51.486;7.144;2023-05-20T00:56:39;3.03;;;1.70;;
31732;SDS011;18312;51.486;7.144;2023-05-20T00:59:06;4.53;;;2.60;;
31732;SDS011;18312;51.486;7.144;2023-05-20T01:01:35;5.90;;;2.15;;
31732;SDS011;18312;51.486;7.144;2023-05-20T01:04:02;1.95;;;1.55;;
31732;SDS011;18312;51.486;7.144;2023-05-20T01:06:29;3.25;;;1.80;;
31732;SDS011;18312;51.486;7.144;2023-05-20T01:08:57;2.72;;;1.77;;
31732;SDS011;18312;51.486;7.144;2023-05-20T01:11:25;2.65;;;1.80;;
31732;SDS011;18312;51.486;7.144;2023-05-20T01:14:00;7.07;;;2.05;;
31732;SDS011;18312;51.486;7.144;2023-05-20T01:16:31;4.00;;;2.10;;
31732;SDS011;18312;51.486;7.144;2023-05-20T01:19:00;8.15;;;3.38;;
31732;SDS011;18312;51.486;7.144;2023-05-20T01:21:29;8.25;;;2.08;;
31732;SDS011;18312;51.486;7.144;2023-05-20T01:23:58;3.90;;;2.05;;
31732;SDS011;18312;51.486;7.144;2023-05-20T01:26:28;2.67;;;1.90;;
31732;SDS011;18312;51.486;7.144;2023-05-20T01:28:54;5.82;;;2.42;;
31732;SDS011;18312;51.486;7.144;2023-05-20T01:31:22;3.75;;;1.77;;
31732;SDS011;18312;51.486;7.144;2023-05-20T01:33:53;3.65;;;2.13;;
31732;SDS011;18312;51.486;7.144;2023-05-20T01:36:22;3.17;;;1.95;;
31732;SDS011;18312;51.486;7.144;2023-05-20T01:38:50;2.80;;;2.10;;
31732;SDS011;18312;51.486;7.144;2023-05-20T01:41:20;9.85;;;2.30;;
31732;SDS011;18312;51.486;7.144;2023-05-20T01:43:50;5.07;;;2.17;;
31732;SDS011;18312;51.486;7.144;2023-05-20T01:46:17;6.70;;;2.70;;
31732;SDS011;18312;51.486;7.144;2023-05-20T01:48:44;2.45;;;2.13;;
31732;SDS011;18312;51.486;7.144;2023-05-20T01:51:10;3.05;;;2.13;;
31732;SDS011;18312;51.486;7.144;2023-05-20T01:53:37;2.58;;;1.85;;
31732;SDS011;18312;51.486;7.144;2023-05-20T01:56:04;4.72;;;2.20;;
31732;SDS011;18312;51.486;7.144;2023-05-20T01:58:32;4.60;;;1.98;;
31732;SDS011;18312;51.486;7.144;2023-05-20T02:00:59;2.78;;;2.20;;
31732;SDS011;18312;51.486;7.144;2023-05-20T02:03:26;5.70;;;2.13;;
31732;SDS011;18312;51.486;7.144;2023-05-20T02:05:53;5.15;;;2.47;;
31732;SDS011;18312;51.486;7.144;2023-05-20T02:08:20;3.85;;;2.13;;
31732;SDS011;18312;51.486;7.144;2023-05-20T02:10:46;3.65;;;2.88;;
31732;SDS011;18312;51.486;7.144;2023-05-20T02:13:13;4.60;;;2.28;;
31732;SDS011;18312;51.486;7.144;2023-05-20T02:15:41;4.15;;;2.47;;
31732;SDS011;18312;51.486;7.144;2023-05-20T02:18:08;3.95;;;2.20;;
31732;SDS011;18312;51.486;7.144;2023-05-20T02:20:36;3.58;;;2.08;;
31732;SDS011;18312;51.486;7.144;2023-05-20T02:23:03;6.72;;;2.40;;
31732;SDS011;18312;51.486;7.144;2023-05-20T02:25:30;3.45;;;2.38;;
31732;SDS011;18312;51.486;7.144;2023-05-20T02:27:57;4.18;;;2.58;;
31732;SDS011;18312;51.486;7.144;2023-05-20T02:30:25;6.43;;;2.53;;
31732;SDS011;18312;51.486;7.144;2023-05-20T02:32:53;10.25;;;3.78;;
31732;SDS011;18312;51.486;7.144;2023-05-20T02:35:21;5.38;;;2.53;;
31732;SDS011;18312;51.486;7.144;2023-05-20T02:37:48;5.32;;;2.55;;
31732;SDS011;18312;51.486;7.144;2023-05-20T02:40:15;6.38;;;2.95;;
31732;SDS011;18312;51.486;7.144;2023-05-20T02:42:42;3.63;;;2.80;;
31732;SDS011;18312;51.486;7.144;2023-05-20T02:45:08;7.45;;;3.28;;
31732;SDS011;18312;51.486;7.144;2023-05-20T02:47:35;6.30;;;2.40;;
31732;SDS011;18312;51.486;7.144;2023-05-20T02:50:04;4.18;;;2.22;;
31732;SDS011;18312;51.486;7.144;2023-05-20T02:52:31;5.03;;;2.33;;
31732;SDS011;18312;51.486;7.144;2023-05-20T02:54:59;7.45;;;2.47;;
31732;SDS011;18312;51.486;7.144;2023-05-20T02:57:26;3.47;;;2.65;;
31732;SDS011;18312;51.486;7.144;2023-05-20T02:59:52;4.30;;;2.38;;
31732;SDS011;18312;51.486;7.144;2023-05-20T03:02:20;2.58;;;1.88;;
31732;SDS011;18312;51.486;7.144;2023-05-20T03:04:51;3.50;;;2.10;;
31732;SDS011;18312;51.486;7.144;2023-05-20T03:07:20;5.38;;;2.45;;
31732;SDS011;18312;51.486;7.144;2023-05-20T03:09:46;3.88;;;2.53;;
31732;SDS011;18312;51.486;7.144;2023-05-20T03:12:13;2.20;;;2.00;;
31732;SDS011;18312;51.486;7.144;2023-05-20T03:14:40;9.50;;;2.05;;
31732;SDS011;18312;51.486;7.144;2023-05-20T03:17:07;4.40;;;2.10;;
31732;SDS011;18312;51.486;7.144;2023-05-20T03:19:34;5.95;;;2.30;;
31732;SDS011;18312;51.486;7.144;2023-05-20T03:22:01;2.90;;;1.90;;
31732;SDS011;18312;51.486;7.144;2023-05-20T03:24:29;5.63;;;2.15;;
31732;SDS011;18312;51.486;7.144;2023-05-20T03:26:56;4.30;;;2.30;;
31732;SDS011;18312;51.486;7.144;2023-05-20T03:29:22;2.80;;;1.83;;
31732;SDS011;18312;51.486;7.144;2023-05-20T03:31:49;2.70;;;2.25;;
31732;SDS011;18312;51.486;7.144;2023-05-20T03:34:16;4.15;;;2.10;;
31732;SDS011;18312;51.486;7.144;2023-05-20T03:36:43;2.78;;;1.95;;
31732;SDS011;18312;51.486;7.144;2023-05-20T03:39:10;5.70;;;2.10;;
31732;SDS011;18312;51.486;7.144;2023-05-20T03:41:38;7.38;;;2.88;;
31732;SDS011;18312;51.486;7.144;2023-05-20T03:44:04;3.92;;;2.22;;
31732;SDS011;18312;51.486;7.144;2023-05-20T03:46:31;4.45;;;2.28;;
31732;SDS011;18312;51.486;7.144;2023-05-20T03:48:58;2.03;;;1.83;;
31732;SDS011;18312;51.486;7.144;2023-05-20T03:51:25;7.20;;;2.70;;
31732;SDS011;18312;51.486;7.144;2023-05-20T03:53:52;5.45;;;2.22;;
31732;SDS011;18312;51.486;7.144;2023-05-20T03:56:19;4.75;;;2.45;;
31732;SDS011;18312;51.486;7.144;2023-05-20T03:58:47;7.10;;;2.50;;
31732;SDS011;18312;51.486;7.144;2023-05-20T04:01:14;6.43;;;2.53;;
31732;SDS011;18312;51.486;7.144;2023-05-20T04:03:41;4.82;;;2.25;;
31732;SDS011;18312;51.486;7.144;2023-05-20T04:06:07;2.47;;;2.28;;
31732;SDS011;18312;51.486;7.144;2023-05-20T04:08:34;6.13;;;2.38;;
31732;SDS011;18312;51.486;7.144;2023-05-20T04:11:01;3.20;;;2.20;;
31732;SDS011;18312;51.486;7.144;2023-05-20T04:13:28;3.60;;;2.70;;
31732;SDS011;18312;51.486;7.144;2023-05-20T04:15:56;5.63;;;2.40;;
31732;SDS011;18312;51.486;7.144;2023-05-20T04:18:24;4.20;;;2.50;;
31732;SDS011;18312;51.486;7.144;2023-05-20T04:20:53;5.30;;;2.55;;
31732;SDS011;18312;51.486;7.144;2023-05-20T04:23:21;3.85;;;2.20;;
31732;SDS011;18312;51.486;7.144;2023-05-20T04:25:47;3.42;;;2.40;;
31732;SDS011;18312;51.486;7.144;2023-05-20T04:28:14;2.65;;;2.15;;
31732;SDS011;18312;51.486;7.144;2023-05-20T04:30:41;7.10;;;3.95;;
31732;SDS011;18312;51.486;7.144;2023-05-20T04:33:10;8.25;;;3.00;;
31732;SDS011;18312;51.486;7.144;2023-05-20T04:35:38;9.02;;;2.97;;
31732;SDS011;18312;51.486;7.144;2023-05-20T04:38:06;4.78;;;2.75;;
31732;SDS011;18312;51.486;7.144;2023-05-20T04:40:33;3.85;;;2.50;;
31732;SDS011;18312;51.486;7.144;2023-05-20T04:43:00;6.15;;;2.65;;
31732;SDS011;18312;51.486;7.144;2023-05-20T04:45:28;4.63;;;2.90;;
31732;SDS011;18312;51.486;7.144;2023-05-20T04:47:54;4.10;;;2.20;;
31732;SDS011;18312;51.486;7.144;2023-05-20T04:50:23;5.13;;;2.38;;
31732;SDS011;18312;51.486;7.144;2023-05-20T04:52:50;4.00;;;2.47;;
31732;SDS011;18312;51.486;7.144;2023-05-20T04:55:17;3.22;;;2.25;;
31732;SDS011;18312;51.486;7.144;2023-05-20T04:57:45;5.35;;;2.50;;
31732;SDS011;18312;51.486;7.144;2023-05-20T05:00:12;2.45;;;2.17;;
31732;SDS011;18312;51.486;7.144;2023-05-20T05:02:40;4.95;;;2.20;;
31732;SDS011;18312;51.486;7.144;2023-05-20T05:05:07;4.63;;;2.58;;
31732;SDS011;18312;51.486;7.144;2023-05-20T05:07:35;3.17;;;2.47;;
31732;SDS011;18312;51.486;7.144;2023-05-20T05:10:02;3.72;;;2.30;;
31732;SDS011;18312;51.486;7.144;2023-05-20T05:12:29;3.80;;;2.35;;
31732;SDS011;18312;51.486;7.144;2023-05-20T05:14:56;4.68;;;3.00;;
31732;SDS011;18312;51.486;7.144;2023-05-20T05:17:23;4.55;;;2.33;;
31732;SDS011;18312;51.486;7.144;2023-05-20T05:19:50;5.80;;;2.60;;
31732;SDS011;18312;51.486;7.144;2023-05-20T05:22:16;5.20;;;2.35;;
31732;SDS011;18312;51.486;7.144;2023-05-20T05:24:44;4.50;;;2.40;;
31732;SDS011;18312;51.486;7.144;2023-05-20T05:27:11;4.70;;;3.10;;
31732;SDS011;18312;51.486;7.144;2023-05-20T05:29:37;4.35;;;2.67;;
31732;SDS011;18312;51.486;7.144;2023-05-20T05:32:05;3.67;;;2.15;;
31732;SDS011;18312;51.486;7.144;2023-05-20T05:34:32;2.95;;;2.40;;
31732;SDS011;18312;51.486;7.144;2023-05-20T05:36:58;3.90;;;2.78;;
31732;SDS011;18312;51.486;7.144;2023-05-20T05:39:25;4.70;;;2.63;;
31732;SDS011;18312;51.486;7.144;2023-05-20T05:41:53;5.10;;;2.63;;
31732;SDS011;18312;51.486;7.144;2023-05-20T05:44:20;6.05;;;3.08;;
31732;SDS011;18312;51.486;7.144;2023-05-20T05:46:47;5.15;;;2.75;;
31732;SDS011;18312;51.486;7.144;2023-05-20T05:49:13;5.30;;;3.05;;
31732;SDS011;18312;51.486;7.144;2023-05-20T05:51:41;4.45;;;3.17;;
31732;SDS011;18312;51.486;7.144;2023-05-20T05:54:07;4.28;;;2.65;;
31732;SDS011;18312;51.486;7.144;2023-05-20T05:56:34;4.53;;;2.58;;
31732;SDS011;18312;51.486;7.144;2023-05-20T05:59:02;13.13;;;2.72;;
31732;SDS011;18312;51.486;7.144;2023-05-20T06:01:30;5.80;;;3.38;;
31732;SDS011;18312;51.486;7.144;2023-05-20T06:03:57;5.63;;;2.63;;
31732;SDS011;18312;51.486;7.144;2023-05-20T06:06:24;5.45;;;2.72;;
31732;SDS011;18312;51.486;7.144;2023-05-20T06:08:51;12.13;;;2.90;;
31732;SDS011;18312;51.486;7.144;2023-05-20T06:11:18;2.88;;;2.17;;
31732;SDS011;18312;51.486;7.144;2023-05-20T06:13:45;3.90;;;2.60;;
31732;SDS011;18312;51.486;7.144;2023-05-20T06:16:13;5.50;;;3.00;;
31732;SDS011;18312;51.486;7.144;2023-05-20T06:18:40;4.15;;;2.80;;
31732;SDS011;18312;51.486;7.144;2023-05-20T06:21:07;4.47;;;2.35;;
31732;SDS011;18312;51.486;7.144;2023-05-20T06:23:34;13.32;;;2.80;;
31732;SDS011;18312;51.486;7.144;2023-05-20T06:26:01;5.32;;;2.28;;
31732;SDS011;18312;51.486;7.144;2023-05-20T06:28:27;3.65;;;2.85;;
31732;SDS011;18312;51.486;7.144;2023-05-20T06:30:55;4.32;;;2.40;;
31732;SDS011;18312;51.486;7.144;2023-05-20T06:33:23;5.00;;;2.90;;
31732;SDS011;18312;51.486;7.144;2023-05-20T06:35:50;3.22;;;2.50;;
31732;SDS011;18312;51.486;7.144;2023-05-20T06:38:17;3.55;;;2.47;;
31732;SDS011;18312;51.486;7.144;2023-05-20T06:40:44;5.43;;;3.03;;
31732;SDS011;18312;51.486;7.144;2023-05-20T06:43:11;3.47;;;2.50;;
31732;SDS011;18312;51.486;7.144;2023-05-20T06:45:38;6.45;;;3.38;;
31732;SDS011;18312;51.486;7.144;2023-05-20T06:48:05;4.50;;;3.17;;
31732;SDS011;18312;51.486;7.144;2023-05-20T06:50:33;7.13;;;2.90;;
31732;SDS011;18312;51.486;7.144;2023-05-20T06:53:00;4.40;;;2.85;;
31732;SDS011;18312;51.486;7.144;2023-05-20T06:55:28;5.10;;;3.45;;
31732;SDS011;18312;51.486;7.144;2023-05-20T06:57:55;4.15;;;2.80;;
31732;SDS011;18312;51.486;7.144;2023-05-20T07:00:22;7.93;;;3.05;;
31732;SDS011;18312;51.486;7.144;2023-05-20T07:02:48;6.88;;;2.95;;
31732;SDS011;18312;51.486;7.144;2023-05-20T07:05:16;3.78;;;2.67;;
31732;SDS011;18312;51.486;7.144;2023-05-20T07:07:44;6.20;;;3.00;;
31732;SDS011;18312;51.486;7.144;2023-05-20T07:10:11;5.57;;;2.90;;
31732;SDS011;18312;51.486;7.144;2023-05-20T07:12:38;5.28;;;3.20;;
31732;SDS011;18312;51.486;7.144;2023-05-20T07:15:05;8.35;;;3.30;;
31732;SDS011;18312;51.486;7.144;2023-05-20T07:17:32;4.15;;;3.03;;
31732;SDS011;18312;51.486;7.144;2023-05-20T07:19:59;6.13;;;3.92;;
31732;SDS011;18312;51.486;7.144;2023-05-20T07:22:26;4.75;;;3.20;;
31732;SDS011;18312;51.486;7.144;2023-05-20T07:24:54;5.63;;;2.72;;
31732;SDS011;18312;51.486;7.144;2023-05-20T07:27:20;6.85;;;3.28;;
31732;SDS011;18312;51.486;7.144;2023-05-20T07:29:47;4.72;;;3.35;;
31732;SDS011;18312;51.486;7.144;2023-05-20T07:32:14;5.88;;;4.25;;
31732;SDS011;18312;51.486;7.144;2023-05-20T07:34:41;4.68;;;3.42;;
31732;SDS011;18312;51.486;7.144;2023-05-20T07:37:08;9.65;;;3.58;;
31732;SDS011;18312;51.486;7.144;2023-05-20T07:39:36;5.85;;;3.42;;
31732;SDS011;18312;51.486;7.144;2023-05-20T07:42:04;7.07;;;3.67;;
31732;SDS011;18312;51.486;7.144;2023-05-20T07:44:31;8.05;;;3.65;;
31732;SDS011;18312;51.486;7.144;2023-05-20T07:46:58;5.18;;;3.88;;
31732;SDS011;18312;51.486;7.144;2023-05-20T07:49:25;13.55;;;3.58;;
31732;SDS011;18312;51.486;7.144;2023-05-20T07:51:51;7.43;;;3.15;;
31732;SDS011;18312;51.486;7.144;2023-05-20T07:54:18;6.55;;;4.53;;
31732;SDS011;18312;51.486;7.144;2023-05-20T07:56:45;8.77;;;3.35;;
31732;SDS011;18312;51.486;7.144;2023-05-20T07:59:13;4.30;;;3.00;;
31732;SDS011;18312;51.486;7.144;2023-05-20T08:01:40;6.80;;;3.90;;
31732;SDS011;18312;51.486;7.144;2023-05-20T08:04:07;10.32;;;4.07;;
31732;SDS011;18312;51.486;7.144;2023-05-20T08:06:34;8.40;;;3.33;;
31732;SDS011;18312;51.486;7.144;2023-05-20T08:09:01;6.45;;;4.28;;
31732;SDS011;18312;51.486;7.144;2023-05-20T08:11:28;5.53;;;3.50;;
31732;SDS011;18312;51.486;7.144;2023-05-20T08:13:55;4.45;;;3.10;;
31732;SDS011;18312;51.486;7.144;2023-05-20T08:16:23;10.77;;;4.15;;
31732;SDS011;18312;51.486;7.144;2023-05-20T08:18:50;8.07;;;3.45;;
31732;SDS011;18312;51.486;7.144;2023-05-20T08:21:16;6.88;;;3.22;;
31732;SDS011;18312;51.486;7.144;2023-05-20T08:23:43;5.00;;;2.97;;
31732;SDS011;18312;51.486;7.144;2023-05-20T08:26:10;9.73;;;4.22;;
31732;SDS011;18312;51.486;7.144;2023-05-20T08:28:37;5.40;;;3.72;;
31732;SDS011;18312;51.486;7.144;2023-05-20T08:31:06;6.93;;;3.38;;
31732;SDS011;18312;51.486;7.144;2023-05-20T08:33:35;8.23;;;3.35;;
31732;SDS011;18312;51.486;7.144;2023-05-20T08:36:01;8.52;;;4.38;;
31732;SDS011;18312;51.486;7.144;2023-05-20T08:38:29;9.40;;;4.05;;
31732;SDS011;18312;51.486;7.144;2023-05-20T08:40:56;6.80;;;3.85;;
31732;SDS011;18312;51.486;7.144;2023-05-20T08:43:23;5.72;;;3.80;;
31732;SDS011;18312;51.486;7.144;2023-05-20T08:45:50;7.13;;;4.05;;
31732;SDS011;18312;51.486;7.144;2023-05-20T08:48:17;8.93;;;4.03;;
31732;SDS011;18312;51.486;7.144;2023-05-20T08:50:50;9.80;;;4.25;;
31732;SDS011;18312;51.486;7.144;2023-05-20T08:53:18;8.05;;;4.05;;
31732;SDS011;18312;51.486;7.144;2023-05-20T08:55:48;7.97;;;4.38;;
31732;SDS011;18312;51.486;7.144;2023-05-20T08:58:20;8.98;;;4.32;;
31732;SDS011;18312;51.486;7.144;2023-05-20T09:00:47;11.15;;;4.43;;
31732;SDS011;18312;51.486;7.144;2023-05-20T09:03:14;10.32;;;4.50;;
31732;SDS011;18312;51.486;7.144;2023-05-20T09:05:41;7.20;;;5.32;;
31732;SDS011;18312;51.486;7.144;2023-05-20T09:08:09;13.00;;;5.55;;
31732;SDS011;18312;51.486;7.144;2023-05-20T09:10:37;12.52;;;5.13;;
31732;SDS011;18312;51.486;7.144;2023-05-20T09:13:05;10.90;;;4.43;;
31732;SDS011;18312;51.486;7.144;2023-05-20T09:15:33;12.00;;;5.55;;
31732;SDS011;18312;51.486;7.144;2023-05-20T09:18:00;9.43;;;4.90;;
31732;SDS011;18312;51.486;7.144;2023-05-20T09:20:28;10.57;;;4.72;;
31732;SDS011;18312;51.486;7.144;2023-05-20T09:22:57;10.82;;;5.13;;
31732;SDS011;18312;51.486;7.144;2023-05-20T09:25:26;9.55;;;4.82;;
31732;SDS011;18312;51.486;7.144;2023-05-20T09:27:54;9.30;;;4.90;;
31732;SDS011;18312;51.486;7.144;2023-05-20T09:30:21;8.40;;;5.40;;
31732;SDS011;18312;51.486;7.144;2023-05-20T09:32:51;7.10;;;4.75;;
31732;SDS011;18312;51.486;7.144;2023-05-20T09:35:19;12.85;;;4.60;;
31732;SDS011;18312;51.486;7.144;2023-05-20T09:37:46;10.07;;;5.50;;
31732;SDS011;18312;51.486;7.144;2023-05-20T09:40:14;10.13;;;5.68;;
31732;SDS011;18312;51.486;7.144;2023-05-20T09:42:43;10.90;;;5.70;;
31732;SDS011;18312;51.486;7.144;2023-05-20T09:45:19;9.63;;;5.05;;
31732;SDS011;18312;51.486;7.144;2023-05-20T09:47:47;8.13;;;5.68;;
31732;SDS011;18312;51.486;7.144;2023-05-20T09:50:15;9.17;;;5.57;;
31732;SDS011;18312;51.486;7.144;2023-05-20T09:52:44;11.90;;;5.97;;
31732;SDS011;18312;51.486;7.144;2023-05-20T09:55:12;8.50;;;4.88;;
31732;SDS011;18312;51.486;7.144;2023-05-20T09:57:40;11.93;;;5.35;;
31732;SDS011;18312;51.486;7.144;2023-05-20T10:00:09;11.90;;;6.20;;
31732;SDS011;18312;51.486;7.144;2023-05-20T10:02:37;12.13;;;5.68;;
31732;SDS011;18312;51.486;7.144;2023-05-20T10:10:44;7.80;;;4.38;;
31732;SDS011;18312;51.486;7.144;2023-05-20T10:13:19;8.80;;;5.15;;
31732;SDS011;18312;51.486;7.144;2023-05-20T10:15:58;7.72;;;4.90;;
31732;SDS011;18312;51.486;7.144;2023-05-20T10:18:33;10.75;;;5.32;;
31732;SDS011;18312;51.486;7.144;2023-05-20T10:21:16;8.88;;;4.78;;
31732;SDS011;18312;51.486;7.144;2023-05-20T10:23:46;12.10;;;6.00;;
31732;SDS011;18312;51.486;7.144;2023-05-20T10:26:13;10.80;;;5.50;;
31732;SDS011;18312;51.486;7.144;2023-05-20T10:28:41;9.75;;;4.90;;
31732;SDS011;18312;51.486;7.144;2023-05-20T10:31:15;7.60;;;4.65;;
31732;SDS011;18312;51.486;7.144;2023-05-20T10:33:43;9.57;;;5.20;;
31732;SDS011;18312;51.486;7.144;2023-05-20T10:36:22;6.53;;;4.75;;
31732;SDS011;18312;51.486;7.144;2023-05-20T10:38:51;8.68;;;5.13;;
31732;SDS011;18312;51.486;7.144;2023-05-20T10:41:20;13.20;;;5.20;;
31732;SDS011;18312;51.486;7.144;2023-05-20T10:44:02;8.52;;;4.55;;
31732;SDS011;18312;51.486;7.144;2023-05-20T10:46:31;10.10;;;5.07;;
31732;SDS011;18312;51.486;7.144;2023-05-20T10:48:58;6.90;;;4.65;;
31732;SDS011;18312;51.486;7.144;2023-05-20T10:51:29;4.93;;;4.45;;
31732;SDS011;18312;51.486;7.144;2023-05-20T10:53:57;9.80;;;4.93;;
31732;SDS011;18312;51.486;7.144;2023-05-20T10:56:24;5.75;;;4.45;;
31732;SDS011;18312;51.486;7.144;2023-05-20T10:58:52;7.57;;;4.55;;
31732;SDS011;18312;51.486;7.144;2023-05-20T11:01:23;6.95;;;4.20;;
31732;SDS011;18312;51.486;7.144;2023-05-20T11:03:51;7.68;;;4.75;;
31732;SDS011;18312;51.486;7.144;2023-05-20T11:06:24;6.53;;;4.25;;
31732;SDS011;18312;51.486;7.144;2023-05-20T11:08:52;7.65;;;4.95;;
31732;SDS011;18312;51.486;7.144;2023-05-20T11:11:19;8.88;;;5.82;;
31732;SDS011;18312;51.486;7.144;2023-05-20T11:13:49;13.05;;;5.13;;
31732;SDS011;18312;51.486;7.144;2023-05-20T11:16:17;6.65;;;4.57;;
31732;SDS011;18312;51.486;7.144;2023-05-20T11:18:48;10.40;;;5.07;;
31732;SDS011;18312;51.486;7.144;2023-05-20T11:21:15;11.98;;;5.53;;
31732;SDS011;18312;51.486;7.144;2023-05-20T11:23:43;7.47;;;5.25;;
31732;SDS011;18312;51.486;7.144;2023-05-20T11:26:09;9.10;;;5.75;;
31732;SDS011;18312;51.486;7.144;2023-05-20T11:28:36;7.00;;;5.47;;
31732;SDS011;18312;51.486;7.144;2023-05-20T11:31:03;7.20;;;5.38;;
31732;SDS011;18312;51.486;7.144;2023-05-20T11:33:31;11.23;;;5.93;;
31732;SDS011;18312;51.486;7.144;2023-05-20T11:35:59;6.85;;;4.57;;
31732;SDS011;18312;51.486;7.144;2023-05-20T11:38:27;8.07;;;4.93;;
31732;SDS011;18312;51.486;7.144;2023-05-20T11:40:55;8.18;;;5.75;;
31732;SDS011;18312;51.486;7.144;2023-05-20T11:43:23;9.00;;;6.20;;
31732;SDS011;18312;51.486;7.144;2023-05-20T11:45:51;7.97;;;4.90;;
31732;SDS011;18312;51.486;7.144;2023-05-20T11:48:19;6.72;;;5.32;;
31732;SDS011;18312;51.486;7.144;2023-05-20T11:50:46;9.60;;;5.22;;
31732;SDS011;18312;51.486;7.144;2023-05-20T11:53:15;6.10;;;4.57;;
31732;SDS011;18312;51.486;7.144;2023-05-20T11:58:10;6.68;;;4.15;;
31732;SDS011;18312;51.486;7.144;2023-05-20T12:00:40;10.95;;;3.78;;
31732;SDS011;18312;51.486;7.144;2023-05-20T12:03:07;9.10;;;3.83;;
31732;SDS011;18312;51.486;7.144;2023-05-20T12:05:33;3.90;;;3.53;;
31732;SDS011;18312;51.486;7.144;2023-05-20T12:08:00;10.13;;;3.88;;
31732;SDS011;18312;51.486;7.144;2023-05-20T12:10:29;6.22;;;3.72;;
31732;SDS011;18312;51.486;7.144;2023-05-20T12:12:56;7.82;;;4.60;;
31732;SDS011;18312;51.486;7.144;2023-05-20T12:15:22;7.38;;;3.92;;
31732;SDS011;18312;51.486;7.144;2023-05-20T12:17:50;7.60;;;4.18;;
31732;SDS011;18312;51.486;7.144;2023-05-20T12:20:19;4.63;;;3.10;;
31732;SDS011;18312;51.486;7.144;2023-05-20T12:22:47;5.35;;;3.28;;
31732;SDS011;18312;51.486;7.144;2023-05-20T12:25:15;4.65;;;3.13;;
31732;SDS011;18312;51.486;7.144;2023-05-20T12:27:45;4.43;;;3.30;;
31732;SDS011;18312;51.486;7.144;2023-05-20T12:30:14;5.75;;;3.83;;
31732;SDS011;18312;51.486;7.144;2023-05-20T12:32:42;5.57;;;3.53;;
31732;SDS011;18312;51.486;7.144;2023-05-20T12:35:10;5.32;;;3.33;;
31732;SDS011;18312;51.486;7.144;2023-05-20T12:37:38;4.60;;;3.15;;
31732;SDS011;18312;51.486;7.144;2023-05-20T12:40:06;4.63;;;2.97;;
31732;SDS011;18312;51.486;7.144;2023-05-20T12:42:35;5.68;;;3.03;;
31732;SDS011;18312;51.486;7.144;2023-05-20T12:45:03;4.80;;;2.97;;
31732;SDS011;18312;51.486;7.144;2023-05-20T12:47:31;4.25;;;3.28;;
31732;SDS011;18312;51.486;7.144;2023-05-20T12:49:59;7.53;;;3.75;;
31732;SDS011;18312;51.486;7.144;2023-05-20T12:52:30;5.40;;;3.70;;
31732;SDS011;18312;51.486;7.144;2023-05-20T12:54:57;5.45;;;3.50;;
31732;SDS011;18312;51.486;7.144;2023-05-20T12:57:23;9.43;;;3.85;;
31732;SDS011;18312;51.486;7.144;2023-05-20T12:59:50;7.78;;;3.95;;
31732;SDS011;18312;51.486;7.144;2023-05-20T13:02:19;4.10;;;3.10;;
31732;SDS011;18312;51.486;7.144;2023-05-20T13:04:45;2.92;;;2.60;;
31732;SDS011;18312;51.486;7.144;2023-05-20T13:07:12;7.95;;;3.55;;
31732;SDS011;18312;51.486;7.144;2023-05-20T13:09:39;4.28;;;3.03;;
31732;SDS011;18312;51.486;7.144;2023-05-20T13:12:06;6.05;;;3.20;;
31732;SDS011;18312;51.486;7.144;2023-05-20T13:14:33;6.20;;;3.63;;
31732;SDS011;18312;51.486;7.144;2023-05-20T13:17:00;4.93;;;2.90;;
31732;SDS011;18312;51.486;7.144;2023-05-20T13:19:30;5.32;;;3.08;;
31732;SDS011;18312;51.486;7.144;2023-05-20T13:21:57;4.05;;;3.10;;
31732;SDS011;18312;51.486;7.144;2023-05-20T13:24:24;4.55;;;3.13;;
31732;SDS011;18312;51.486;7.144;2023-05-20T13:26:51;4.32;;;3.60;;
31732;SDS011;18312;51.486;7.144;2023-05-20T13:29:20;5.25;;;2.95;;
31732;SDS011;18312;51.486;7.144;2023-05-20T13:31:50;5.32;;;3.00;;
31732;SDS011;18312;51.486;7.144;2023-05-20T13:34:17;5.15;;;3.33;;
31732;SDS011;18312;51.486;7.144;2023-05-20T13:36:58;3.17;;;2.50;;
31732;SDS011;18312;51.486;7.144;2023-05-20T13:39:30;7.75;;;2.70;;
31732;SDS011;18312;51.486;7.144;2023-05-20T13:41:57;3.63;;;2.90;;
31732;SDS011;18312;51.486;7.144;2023-05-20T13:44:30;4.97;;;3.75;;
31732;SDS011;18312;51.486;7.144;2023-05-20T13:46:57;5.10;;;3.50;;
31732;SDS011;18312;51.486;7.144;2023-05-20T13:49:24;5.10;;;3.03;;
31732;SDS011;18312;51.486;7.144;2023-05-20T13:51:50;4.55;;;3.10;;
31732;SDS011;18312;51.486;7.144;2023-05-20T13:54:27;4.28;;;3.10;;
31732;SDS011;18312;51.486;7.144;2023-05-20T13:57:04;9.05;;;3.15;;
31732;SDS011;18312;51.486;7.144;2023-05-20T13:59:34;3.70;;;2.75;;
31732;SDS011;18312;51.486;7.144;2023-05-20T14:02:03;5.60;;;3.03;;
31732;SDS011;18312;51.486;7.144;2023-05-20T14:04:30;5.40;;;2.80;;
31732;SDS011;18312;51.486;7.144;2023-05-20T14:07:02;3.47;;;2.65;;
31732;SDS011;18312;51.486;7.144;2023-05-20T14:09:30;4.90;;;3.10;;
31732;SDS011;18312;51.486;7.144;2023-05-20T14:11:56;2.70;;;2.47;;
31732;SDS011;18312;51.486;7.144;2023-05-20T14:14:23;6.00;;;2.80;;
31732;SDS011;18312;51.486;7.144;2023-05-20T14:16:50;4.85;;;2.95;;
31732;SDS011;18312;51.486;7.144;2023-05-20T14:19:17;4.47;;;2.80;;
31732;SDS011;18312;51.486;7.144;2023-05-20T14:21:44;4.57;;;3.10;;
31732;SDS011;18312;51.486;7.144;2023-05-20T14:24:10;4.50;;;3.30;;
31732;SDS011;18312;51.486;7.144;2023-05-20T14:26:38;3.97;;;2.97;;
31732;SDS011;18312;51.486;7.144;2023-05-20T14:29:05;4.43;;;3.13;;
31732;SDS011;18312;51.486;7.144;2023-05-20T14:31:32;3.80;;;3.17;;
31732;SDS011;18312;51.486;7.144;2023-05-20T14:34:00;3.63;;;2.90;;
31732;SDS011;18312;51.486;7.144;2023-05-20T14:36:27;6.40;;;3.28;;
31732;SDS011;18312;51.486;7.144;2023-05-20T14:38:54;4.20;;;3.13;;
31732;SDS011;18312;51.486;7.144;2023-05-20T14:41:20;6.47;;;3.35;;
31732;SDS011;18312;51.486;7.144;2023-05-20T14:43:48;7.25;;;3.78;;
31732;SDS011;18312;51.486;7.144;2023-05-20T14:46:15;4.97;;;3.28;;
31732;SDS011;18312;51.486;7.144;2023-05-20T14:48:42;9.82;;;3.85;;
31732;SDS011;18312;51.486;7.144;2023-05-20T14:51:09;4.22;;;3.30;;
31732;SDS011;18312;51.486;7.144;2023-05-20T14:53:35;6.57;;;4.65;;
31732;SDS011;18312;51.486;7.144;2023-05-20T14:56:02;3.03;;;2.40;;